ADDS TAF Data INFO
IDs: Format: Raw Decoded Include METARs

Data at: 0028 UTC 27 Apr 2018

KCKB 262353Z 00000KT 10SM CLR 16/03 A2985 RMK AO2 SLP104 T01560033 10172 20150 58001

KCKB 262336Z 2700/2724 00000KT P6SM BKN200
  FM271100 00000KT P6SM OVC025
  FM271200 00000KT P6SM BKN015
  FM271300 00000KT P6SM BKN025
  FM271400 24006KT P6SM BKN040
  FM272200 25005KT P6SM SCT050